Time;durP1;ratioP1;P1;durP2;ratioP2;P2;SDS_P1;SDS_P2;PMS_P1;PMS_P2;Temp;Humidity;BMP_temperature;BMP_pressure;BME280_temperature;BME280_humidity;BME280_pressure;Samples;Min_cycle;Max_cycle;Signal;HPM_P1;HPM_P2
2021/11/26 00:00:26;;;;;;;22.42;14.95;;;10.10;99.90;;;;;;5033608;28;20045;-74
2021/11/26 00:03:30;;;;;;;25.70;15.65;;;10.10;99.90;;;;;;5033686;28;20392;-73
2021/11/26 00:06:35;;;;;;;20.25;13.75;;;10.10;99.90;;;;;;5032842;28;20052;-73
2021/11/26 00:09:40;;;;;;;26.38;15.63;;;10.10;99.90;;;;;;5032910;28;20045;-74
2021/11/26 00:12:52;;;;;;;19.15;12.95;;;10.00;99.90;;;;;;5013671;28;20052;-73
2021/11/26 00:16:03;;;;;;;16.95;12.20;;;10.00;99.90;;;;;;5029794;28;20502;-73
2021/11/26 00:19:08;;;;;;;17.48;12.00;;;10.00;99.90;;;;;;5032011;28;20048;-74
2021/11/26 00:22:15;;;;;;;18.45;11.48;;;10.00;99.90;;;;;;5033521;28;20068;-74
2021/11/26 00:25:19;;;;;;;21.85;13.35;;;10.00;99.90;;;;;;5029021;28;20052;-74
2021/11/26 00:28:25;;;;;;;25.15;13.93;;;10.00;99.90;;;;;;5031857;28;20507;-74
2021/11/26 00:31:29;;;;;;;21.15;13.32;;;10.00;99.90;;;;;;5032911;28;20052;-74
2021/11/26 00:34:34;;;;;;;15.27;10.73;;;10.10;99.90;;;;;;5031151;28;20053;-74
2021/11/26 00:37:38;;;;;;;14.10;10.02;;;10.10;99.90;;;;;;5031939;28;20046;-74
2021/11/26 00:40:42;;;;;;;18.52;11.32;;;10.10;99.90;;;;;;5033022;28;20070;-73
2021/11/26 00:43:46;;;;;;;18.15;12.20;;;10.10;99.90;;;;;;5032706;28;20041;-73
2021/11/26 00:46:50;;;;;;;25.83;15.73;;;10.00;99.90;;;;;;5032023;28;20523;-73
2021/11/26 00:49:54;;;;;;;26.83;16.60;;;9.80;99.90;;;;;;5032232;28;20060;-74
2021/11/26 00:52:58;;;;;;;28.08;18.00;;;9.60;99.90;;;;;;5013066;28;20040;-73
2021/11/26 00:56:02;;;;;;;32.70;19.83;;;9.50;99.90;;;;;;5027274;28;20400;-73
2021/11/26 00:59:07;;;;;;;33.72;21.15;;;9.50;99.90;;;;;;5031829;28;20503;-73
2021/11/26 01:02:10;;;;;;;34.47;21.77;;;9.50;99.90;;;;;;5012730;28;20037;-73
2021/11/26 01:05:15;;;;;;;30.67;19.30;;;9.50;99.90;;;;;;5029191;28;20044;-73
2021/11/26 01:08:21;;;;;;;37.08;20.80;;;9.60;99.90;;;;;;5031348;28;20048;-73
2021/11/26 01:11:24;;;;;;;29.77;18.80;;;9.60;99.90;;;;;;5032486;28;20052;-74
2021/11/26 01:14:29;;;;;;;32.45;20.25;;;9.70;99.90;;;;;;5031637;28;20044;-73
2021/11/26 01:17:34;;;;;;;28.95;18.65;;;9.80;99.90;;;;;;5031395;28;20053;-74
2021/11/26 01:20:38;;;;;;;28.95;17.80;;;9.90;99.90;;;;;;5032240;28;20044;-73
2021/11/26 01:23:43;;;;;;;28.65;17.85;;;9.90;99.90;;;;;;5028818;28;20492;-74
2021/11/26 01:26:47;;;;;;;29.95;17.15;;;9.90;99.90;;;;;;5031622;28;20499;-74
2021/11/26 01:29:51;;;;;;;25.10;15.68;;;10.00;99.90;;;;;;5031725;28;20056;-74
2021/11/26 01:32:59;;;;;;;22.05;14.52;;;9.90;99.90;;;;;;5030851;28;20488;-73
2021/11/26 01:36:03;;;;;;;22.42;14.75;;;9.90;99.90;;;;;;5030733;28;20052;-74
2021/11/26 01:39:06;;;;;;;21.80;14.98;;;9.90;99.90;;;;;;5031236;28;20052;-74
2021/11/26 01:42:10;;;;;;;20.13;13.38;;;9.90;99.90;;;;;;5011930;28;20061;-73
2021/11/26 01:45:15;;;;;;;20.77;13.15;;;9.90;99.90;;;;;;5025778;28;20048;-73
2021/11/26 01:48:21;;;;;;;19.02;12.80;;;9.90;99.90;;;;;;5030957;28;20741;-73
2021/11/26 01:51:25;;;;;;;20.05;13.98;;;9.90;99.90;;;;;;5012180;28;20056;-74
2021/11/26 01:54:29;;;;;;;26.02;15.95;;;9.80;99.90;;;;;;5027705;28;20036;-73
2021/11/26 01:57:34;;;;;;;25.08;16.70;;;9.80;99.90;;;;;;5030754;28;20044;-73
2021/11/26 02:00:41;;;;;;;25.38;16.75;;;9.80;99.90;;;;;;5031624;28;20044;-74
2021/11/26 02:03:45;;;;;;;24.85;15.85;;;9.70;99.90;;;;;;5030772;28;20037;-73
2021/11/26 02:06:50;;;;;;;27.70;17.50;;;9.70;99.90;;;;;;5031245;28;20056;-73
2021/11/26 02:09:54;;;;;;;23.75;15.68;;;9.70;99.90;;;;;;5030067;28;20495;-74
2021/11/26 02:12:58;;;;;;;26.15;17.80;;;9.70;99.90;;;;;;5027793;28;20487;-73
2021/11/26 02:16:03;;;;;;;24.38;16.83;;;9.70;99.90;;;;;;5030687;28;20049;-73
2021/11/26 02:19:09;;;;;;;27.92;18.05;;;9.60;99.90;;;;;;5041455;28;20052;-73
2021/11/26 02:22:15;;;;;;;33.30;19.98;;;9.60;99.90;;;;;;5030571;28;20048;-73
2021/11/26 02:25:21;;;;;;;29.83;18.73;;;9.60;99.90;;;;;;5030405;28;20056;-74
2021/11/26 02:28:25;;;;;;;27.35;17.55;;;9.50;99.90;;;;;;5030476;28;20068;-74
2021/11/26 02:31:29;;;;;;;28.30;17.95;;;9.50;99.90;;;;;;5030231;28;20045;-73
2021/11/26 02:34:33;;;;;;;26.55;17.90;;;9.40;99.90;;;;;;5030154;28;20420;-74
2021/11/26 02:37:39;;;;;;;30.98;19.17;;;9.40;99.90;;;;;;5030246;28;20048;-73
2021/11/26 02:40:44;;;;;;;27.10;17.23;;;9.30;99.90;;;;;;5030964;28;20058;-73
2021/11/26 02:43:49;;;;;;;25.58;16.92;;;9.30;99.90;;;;;;5030215;28;20504;-74
2021/11/26 02:46:53;;;;;;;28.80;18.52;;;9.30;99.90;;;;;;5030155;28;20075;-74
2021/11/26 02:49:56;;;;;;;29.13;18.00;;;9.30;99.90;;;;;;5030858;28;20105;-73
2021/11/26 02:53:03;;;;;;;27.88;16.33;;;9.30;99.90;;;;;;5029720;28;20032;-73
2021/11/26 02:56:07;;;;;;;23.58;14.80;;;9.20;99.90;;;;;;5030065;28;20044;-73
2021/11/26 02:59:11;;;;;;;24.98;14.40;;;9.10;99.90;;;;;;5030398;28;20388;-73
2021/11/26 03:02:15;;;;;;;23.08;14.27;;;9.10;99.90;;;;;;5030788;28;20479;-73
2021/11/26 03:05:19;;;;;;;21.77;13.18;;;9.00;99.90;;;;;;5030053;28;20036;-73
2021/11/26 03:08:23;;;;;;;20.25;11.20;;;9.00;99.90;;;;;;5029510;28;20052;-74
2021/11/26 03:11:27;;;;;;;19.40;11.32;;;8.90;99.90;;;;;;5029426;28;20056;-73
2021/11/26 03:14:31;;;;;;;16.95;11.68;;;8.80;99.90;;;;;;5029742;28;20040;-73
2021/11/26 03:17:36;;;;;;;17.45;11.00;;;8.70;99.90;;;;;;5030423;28;20057;-74
2021/11/26 03:20:40;;;;;;;18.15;11.15;;;8.60;99.90;;;;;;5030527;28;20045;-74
2021/11/26 03:23:44;;;;;;;21.30;12.38;;;8.60;99.90;;;;;;5029876;28;20480;-73
2021/11/26 03:26:48;;;;;;;15.38;10.82;;;8.60;99.90;;;;;;5030211;28;20384;-73
2021/11/26 03:29:52;;;;;;;18.77;11.30;;;8.50;99.90;;;;;;5010716;28;20049;-73
2021/11/26 03:32:56;;;;;;;20.20;12.18;;;8.60;99.90;;;;;;5025642;28;20052;-73
2021/11/26 03:36:00;;;;;;;18.25;11.80;;;8.50;99.90;;;;;;5030338;28;20052;-73
2021/11/26 03:39:04;;;;;;;138.88;17.98;;;8.50;99.90;;;;;;5010177;28;20052;-73
2021/11/26 03:42:09;;;;;;;424.10;33.20;;;8.50;99.90;;;;;;5027617;28;20056;-73
2021/11/26 03:45:14;;;;;;;881.50;58.72;;;8.20;99.90;;;;;;5029581;28;20044;-73
2021/11/26 03:48:18;;;;;;;896.20;59.70;;;7.90;99.90;;;;;;5030238;28;20048;-73
2021/11/26 03:51:22;;;;;;;505.73;39.55;;;7.60;99.90;;;;;;5033284;28;20506;-73
2021/11/26 03:54:26;;;;;;;113.00;20.52;;;7.50;99.90;;;;;;5032777;28;20048;-73
2021/11/26 03:57:30;;;;;;;231.95;22.92;;;7.50;99.90;;;;;;5033840;28;20044;-73
2021/11/26 04:00:34;;;;;;;31.15;12.30;;;7.60;99.90;;;;;;5031033;28;20045;-73
2021/11/26 04:03:38;;;;;;;163.35;17.55;;;7.60;99.90;;;;;;5033044;28;20068;-73
2021/11/26 04:06:42;;;;;;;247.60;20.67;;;7.70;99.90;;;;;;5033693;28;20514;-73
2021/11/26 04:09:46;;;;;;;244.98;22.25;;;7.70;99.90;;;;;;5032190;28;20044;-73
2021/11/26 04:12:51;;;;;;;117.88;15.82;;;7.80;99.90;;;;;;5032748;28;20064;-74
2021/11/26 04:16:01;;;;;;;96.35;16.65;;;7.90;99.90;;;;;;5033301;28;20053;-73
2021/11/26 04:19:06;;;;;;;75.85;15.35;;;8.00;99.90;;;;;;5013117;28;20049;-73
2021/11/26 04:22:10;;;;;;;17.75;11.52;;;8.00;99.90;;;;;;5028334;28;20052;-73
2021/11/26 04:25:16;;;;;;;216.90;20.17;;;8.00;99.90;;;;;;5032905;28;20041;-73
2021/11/26 04:28:21;;;;;;;62.38;13.15;;;7.80;99.90;;;;;;5032758;28;20048;-73
2021/11/26 04:31:26;;;;;;;20.92;11.98;;;7.90;99.90;;;;;;5032544;28;20048;-73
2021/11/26 04:34:30;;;;;;;26.73;13.23;;;7.90;99.90;;;;;;5032423;28;20060;-73
2021/11/26 04:37:34;;;;;;;24.90;13.68;;;8.00;99.90;;;;;;5033133;28;20498;-73
2021/11/26 04:40:38;;;;;;;86.43;15.98;;;8.10;99.90;;;;;;5032449;28;20396;-73
2021/11/26 04:43:43;;;;;;;283.15;24.38;;;8.10;99.90;;;;;;5032221;28;20369;-73
2021/11/26 04:46:47;;;;;;;402.50;31.50;;;8.00;99.90;;;;;;5032999;28;20068;-73
2021/11/26 04:49:52;;;;;;;482.67;34.72;;;7.80;99.90;;;;;;5031959;28;20045;-73
2021/11/26 04:52:56;;;;;;;39.95;15.00;;;7.80;99.90;;;;;;5033086;28;20408;-73
2021/11/26 04:56:00;;;;;;;43.78;16.88;;;7.90;99.90;;;;;;5032711;28;20044;-73
2021/11/26 04:59:04;;;;;;;130.77;19.02;;;8.00;99.90;;;;;;5031428;28;20041;-73
2021/11/26 05:02:09;;;;;;;112.38;18.42;;;8.00;99.90;;;;;;5031641;28;20376;-73
2021/11/26 05:05:13;;;;;;;69.18;14.38;;;8.00;99.90;;;;;;5032179;28;20060;-73
2021/11/26 05:08:19;;;;;;;71.90;14.43;;;8.10;99.90;;;;;;5012268;28;20056;-73
2021/11/26 05:11:24;;;;;;;55.90;15.45;;;8.10;99.90;;;;;;5026783;28;20499;-73
2021/11/26 05:14:30;;;;;;;86.07;15.88;;;8.10;99.90;;;;;;5031967;28;20044;-73
2021/11/26 05:17:34;;;;;;;53.10;13.40;;;8.10;99.90;;;;;;5032376;28;20064;-73
2021/11/26 05:20:38;;;;;;;179.73;21.67;;;8.10;99.90;;;;;;5031351;28;20385;-73
2021/11/26 05:23:42;;;;;;;255.65;24.30;;;7.90;99.90;;;;;;5031334;28;20041;-73
2021/11/26 05:26:46;;;;;;;427.02;37.90;;;8.00;99.90;;;;;;5032175;28;20045;-73
2021/11/26 05:29:50;;;;;;;337.13;32.22;;;8.00;99.90;;;;;;5030924;28;20040;-73
2021/11/26 05:32:54;;;;;;;339.17;31.58;;;8.10;99.90;;;;;;5029193;28;20072;-73
2021/11/26 05:35:58;;;;;;;82.75;17.15;;;8.20;99.90;;;;;;5032192;28;20061;-73
2021/11/26 05:39:04;;;;;;;295.15;25.85;;;8.20;99.90;;;;;;5030978;28;20499;-73
2021/11/26 05:42:08;;;;;;;40.05;15.60;;;8.20;99.90;;;;;;5041354;28;20044;-73
2021/11/26 05:45:13;;;;;;;122.38;20.13;;;8.30;99.90;;;;;;5031922;28;20396;-73
2021/11/26 05:48:18;;;;;;;34.22;16.38;;;8.30;99.90;;;;;;5030830;28;20502;-73
2021/11/26 05:51:22;;;;;;;47.42;15.55;;;8.40;99.90;;;;;;5031304;28;20598;-73
2021/11/26 05:54:27;;;;;;;183.55;22.33;;;8.40;99.90;;;;;;5031406;28;20475;-73
2021/11/26 05:57:32;;;;;;;600.90;50.92;;;8.40;99.90;;;;;;5030813;28;20049;-72
2021/11/26 06:00:36;;;;;;;80.40;15.95;;;8.40;99.90;;;;;;5030704;28;20049;-73
2021/11/26 06:03:40;;;;;;;336.58;32.55;;;8.50;99.90;;;;;;5031468;28;20040;-73
2021/11/26 06:06:44;;;;;;;209.40;25.85;;;8.40;99.90;;;;;;5031365;28;20048;-73
2021/11/26 06:09:48;;;;;;;193.88;28.15;;;8.40;99.90;;;;;;5030746;28;20435;-73
2021/11/26 06:12:53;;;;;;;99.70;19.45;;;8.40;99.90;;;;;;5030042;28;20048;-73
2021/11/26 06:15:57;;;;;;;63.70;19.25;;;8.40;99.90;;;;;;5031344;28;20395;-73
2021/11/26 06:19:00;;;;;;;36.95;16.15;;;8.30;99.90;;;;;;5029747;28;20507;-73
2021/11/26 06:22:04;;;;;;;40.80;16.90;;;8.30;99.90;;;;;;5030693;28;20060;-73
2021/11/26 06:25:11;;;;;;;45.20;18.23;;;8.30;99.90;;;;;;5031415;28;20052;-73
2021/11/26 06:28:15;;;;;;;71.03;19.02;;;8.30;99.90;;;;;;5027087;28;20045;-73
2021/11/26 06:31:19;;;;;;;861.53;65.53;;;8.10;99.90;;;;;;5030575;28;20052;-73
2021/11/26 06:34:23;;;;;;;611.17;44.75;;;8.00;99.90;;;;;;5031273;28;20256;-73
2021/11/26 06:37:28;;;;;;;808.60;59.60;;;7.90;99.90;;;;;;5029071;28;20045;-73
2021/11/26 06:40:32;;;;;;;41.55;15.77;;;7.90;99.90;;;;;;5030663;28;20044;-73
2021/11/26 06:43:36;;;;;;;47.10;16.00;;;7.90;99.90;;;;;;5031042;28;20439;-73
2021/11/26 06:46:40;;;;;;;325.77;30.20;;;8.00;99.90;;;;;;5011300;28;20049;-73
2021/11/26 06:49:44;;;;;;;29.80;12.05;;;8.10;99.90;;;;;;5023426;28;20060;-73
2021/11/26 06:52:49;;;;;;;258.77;24.95;;;8.10;99.90;;;;;;5030804;28;20044;-72
2021/11/26 06:55:54;;;;;;;131.20;18.30;;;8.20;99.90;;;;;;5011395;28;20044;-73
2021/11/26 06:58:59;;;;;;;736.35;48.20;;;8.20;99.90;;;;;;5024416;28;20049;-73
2021/11/26 07:02:03;;;;;;;449.63;31.60;;;8.10;99.90;;;;;;5030576;28;20048;-73
2021/11/26 07:05:07;;;;;;;304.58;28.42;;;8.20;99.90;;;;;;5026043;28;20044;-73
2021/11/26 07:08:11;;;;;;;760.65;51.88;;;8.20;99.90;;;;;;5027361;28;20534;-73
2021/11/26 07:11:15;;;;;;;278.98;23.23;;;8.20;99.90;;;;;;5030136;28;20052;-73
2021/11/26 07:14:19;;;;;;;426.95;38.13;;;8.20;99.90;;;;;;5030243;28;20048;-73
2021/11/26 07:17:24;;;;;;;802.00;53.90;;;8.30;99.90;;;;;;5027838;28;20072;-73
2021/11/26 07:20:28;;;;;;;793.95;51.22;;;8.50;99.90;;;;;;5029513;28;20048;-73
2021/11/26 07:23:32;;;;;;;238.50;23.27;;;8.50;99.90;;;;;;5013059;28;20397;-72
2021/11/26 07:26:36;;;;;;;295.90;26.65;;;8.40;99.90;;;;;;5029319;28;20068;-73
2021/11/26 07:29:40;;;;;;;71.30;16.83;;;8.10;99.90;;;;;;5032856;28;20044;-73
2021/11/26 07:32:44;;;;;;;227.35;22.90;;;8.20;99.90;;;;;;5031334;28;20052;-73
2021/11/26 07:35:49;;;;;;;408.77;33.03;;;8.40;99.90;;;;;;5033222;28;20598;-73
2021/11/26 07:38:53;;;;;;;487.77;34.33;;;8.60;99.90;;;;;;5031283;28;20040;-73
2021/11/26 07:41:57;;;;;;;765.80;47.78;;;8.60;99.90;;;;;;5033358;28;20052;-73
2021/11/26 07:45:04;;;;;;;772.65;53.03;;;8.30;99.90;;;;;;5032907;28;20103;-73
2021/11/26 07:48:08;;;;;;;170.90;27.63;;;8.20;99.90;;;;;;5030263;28;20045;-73
2021/11/26 07:51:12;;;;;;;229.10;27.45;;;8.30;99.90;;;;;;5031571;28;20045;-73
2021/11/26 07:54:16;;;;;;;536.03;40.65;;;8.40;99.90;;;;;;5032323;28;20060;-73
2021/11/26 07:57:20;;;;;;;578.63;44.63;;;8.30;99.90;;;;;;5033778;28;20052;-73
2021/11/26 08:00:24;;;;;;;314.30;31.40;;;8.20;99.90;;;;;;5031361;28;20053;-73
2021/11/26 08:03:28;;;;;;;794.50;63.45;;;8.30;99.90;;;;;;5032974;28;20776;-73
2021/11/26 08:06:32;;;;;;;1055.97;70.97;;;8.20;99.90;;;;;;5030552;28;20304;-73
2021/11/26 08:09:36;;;;;;;562.55;51.58;;;8.00;99.90;;;;;;5026694;28;20103;-73
2021/11/26 08:12:41;;;;;;;364.55;42.13;;;8.10;99.90;;;;;;5030914;28;20041;-73
2021/11/26 08:15:45;;;;;;;294.58;35.20;;;8.30;99.90;;;;;;5030038;28;20044;-73
2021/11/26 08:18:49;;;;;;;226.13;30.08;;;8.40;99.90;;;;;;5030651;28;20500;-73
2021/11/26 08:21:54;;;;;;;731.72;54.78;;;8.50;99.90;;;;;;5032464;28;20202;-73
2021/11/26 08:24:58;;;;;;;155.68;25.13;;;8.50;99.90;;;;;;5027439;28;20384;-73
2021/11/26 08:28:03;;;;;;;52.53;21.67;;;8.70;99.90;;;;;;5027452;28;20044;-73
2021/11/26 08:31:09;;;;;;;684.75;58.28;;;8.70;99.90;;;;;;5030428;28;20405;-73
2021/11/26 08:34:13;;;;;;;314.83;37.92;;;8.70;99.90;;;;;;5030319;28;20496;-73
2021/11/26 08:37:18;;;;;;;318.15;36.85;;;8.70;99.90;;;;;;5030690;28;20074;-73
2021/11/26 08:40:23;;;;;;;356.45;38.75;;;8.70;99.90;;;;;;5033884;28;20044;-73
2021/11/26 08:43:28;;;;;;;88.32;26.70;;;8.80;99.90;;;;;;5025604;28;20044;-73
2021/11/26 08:46:33;;;;;;;363.42;36.97;;;8.90;99.90;;;;;;5029463;28;20036;-73
2021/11/26 08:49:37;;;;;;;96.95;26.75;;;8.90;99.90;;;;;;5030480;28;20033;-73
2021/11/26 08:52:43;;;;;;;91.15;25.88;;;9.00;99.90;;;;;;5031197;28;20072;-73
2021/11/26 08:55:52;;;;;;;324.63;32.75;;;9.10;99.90;;;;;;5028343;28;20052;-73
2021/11/26 08:58:58;;;;;;;553.63;43.65;;;9.20;99.90;;;;;;5027071;28;20064;-73
2021/11/26 09:02:02;;;;;;;711.17;56.38;;;9.00;99.90;;;;;;5027853;28;20044;-73
2021/11/26 09:05:06;;;;;;;130.68;24.95;;;8.90;99.90;;;;;;5029000;28;20040;-73
2021/11/26 09:08:14;;;;;;;475.65;43.47;;;8.80;99.90;;;;;;5027113;28;20048;-73
2021/11/26 09:11:20;;;;;;;97.43;27.05;;;8.80;99.90;;;;;;5034695;28;20495;-73
2021/11/26 09:14:24;;;;;;;300.05;31.98;;;9.00;99.90;;;;;;5036436;28;20415;-73
2021/11/26 09:17:28;;;;;;;522.88;45.08;;;9.10;99.90;;;;;;5034108;28;20099;-73
2021/11/26 09:20:33;;;;;;;424.02;43.20;;;9.20;99.90;;;;;;5030379;28;20048;-73
2021/11/26 09:23:37;;;;;;;439.65;45.90;;;9.30;99.90;;;;;;5027787;28;20499;-73
2021/11/26 09:26:42;;;;;;;457.13;41.30;;;9.10;99.90;;;;;;5030172;28;20037;-73
2021/11/26 09:29:47;;;;;;;615.78;48.85;;;9.10;99.90;;;;;;5028097;28;20049;-73
2021/11/26 09:32:51;;;;;;;173.73;27.55;;;9.00;99.90;;;;;;5029632;28;20060;-73
2021/11/26 09:35:55;;;;;;;162.32;30.05;;;8.90;99.90;;;;;;5027870;28;20045;-73
2021/11/26 09:39:03;;;;;;;45.88;21.98;;;9.00;99.90;;;;;;5028748;28;20037;-73
2021/11/26 09:42:08;;;;;;;54.67;21.60;;;9.10;99.90;;;;;;5029866;28;20380;-73
2021/11/26 09:45:18;;;;;;;38.17;20.77;;;9.10;99.90;;;;;;5028681;28;20049;-73
2021/11/26 09:48:24;;;;;;;47.00;20.65;;;9.10;99.90;;;;;;5028221;28;20044;-74
2021/11/26 09:51:28;;;;;;;45.75;21.65;;;9.20;99.90;;;;;;5026522;28;20038;-73
2021/11/26 09:54:41;;;;;;;39.17;20.50;;;9.20;99.90;;;;;;5039406;28;20040;-73
2021/11/26 09:57:46;;;;;;;301.58;34.05;;;9.10;99.90;;;;;;5027285;28;20068;-74
2021/11/26 10:00:52;;;;;;;529.15;48.05;;;8.90;99.90;;;;;;5028700;28;20054;-74
2021/11/26 10:03:56;;;;;;;553.08;54.13;;;8.80;99.90;;;;;;5029111;28;20380;-73
2021/11/26 10:07:01;;;;;;;85.30;29.38;;;8.60;99.90;;;;;;5030071;28;20040;-72
2021/11/26 10:10:10;;;;;;;45.28;21.55;;;8.70;99.90;;;;;;5027856;28;20048;-72
2021/11/26 10:13:17;;;;;;;35.25;17.25;;;8.80;99.90;;;;;;5023301;28;20052;-71
2021/11/26 10:16:22;;;;;;;28.45;15.88;;;8.90;99.90;;;;;;5027241;28;20049;-72
2021/11/26 10:19:54;;;;;;;32.38;16.13;;;8.90;99.90;;;;;;5027403;28;20033;-72
2021/11/26 10:22:58;;;;;;;35.42;15.40;;;8.90;99.90;;;;;;5028990;28;20052;-72
2021/11/26 10:26:22;;;;;;;27.33;14.98;;;9.10;99.90;;;;;;5030395;28;20048;-72
2021/11/26 10:29:38;;;;;;;21.95;13.50;;;9.30;99.90;;;;;;5027062;28;20048;-72
2021/11/26 10:33:06;;;;;;;25.63;12.77;;;9.50;99.90;;;;;;5029681;28;20052;-72
2021/11/26 10:36:11;;;;;;;21.80;12.52;;;9.90;99.90;;;;;;5028513;28;20040;-73
2021/11/26 10:39:18;;;;;;;19.48;11.40;;;10.40;99.90;;;;;;5027850;28;20515;-73
2021/11/26 10:42:29;;;;;;;21.67;10.75;;;11.10;99.90;;;;;;5023760;28;20036;-73
2021/11/26 10:58:49;;;;;;;;;;;15.00;99.90;;;;;;5031583;28;20041;-73
2021/11/26 11:01:54;;;;;;;18.13;6.72;;;14.60;99.90;;;;;;5033327;28;19916;-73
2021/11/26 11:04:59;;;;;;;12.65;5.38;;;13.90;99.90;;;;;;5032452;28;20045;-73
2021/11/26 11:08:05;;;;;;;19.17;7.65;;;13.70;99.90;;;;;;5033628;28;20041;-73
2021/11/26 11:11:14;;;;;;;4.70;3.03;;;14.10;99.90;;;;;;5025605;28;20044;-73
2021/11/26 11:14:21;;;;;;;3.72;1.67;;;15.20;99.90;;;;;;5032683;28;20101;-73
2021/11/26 11:17:29;;;;;;;2.20;1.63;;;13.70;99.90;;;;;;5038745;28;20384;-73
2021/11/26 11:20:34;;;;;;;2.30;1.15;;;14.90;99.90;;;;;;5033248;28;20036;-74
2021/11/26 11:23:39;;;;;;;3.35;1.67;;;17.50;99.90;;;;;;5030063;28;20041;-75
2021/11/26 11:26:47;;;;;;;1.38;0.90;;;20.00;99.90;;;;;;5033011;28;20037;-74
2021/11/26 11:29:52;;;;;;;1.10;0.93;;;17.70;99.90;;;;;;5032617;28;20483;-74
2021/11/26 11:32:56;;;;;;;1.42;1.00;;;17.80;99.90;;;;;;5030716;28;20049;-74
2021/11/26 11:36:02;;;;;;;2.95;0.90;;;17.20;99.90;;;;;;5031192;28;20041;-74
2021/11/26 11:39:07;;;;;;;2.38;1.20;;;16.00;99.90;;;;;;5031247;28;20411;-74
2021/11/26 11:42:11;;;;;;;1.65;1.20;;;14.60;99.90;;;;;;5032064;28;20388;-74
2021/11/26 11:45:17;;;;;;;2.38;1.25;;;13.60;99.90;;;;;;5030341;28;20045;-74
2021/11/26 11:48:36;;;;;;;0.90;0.70;;;14.30;99.90;;;;;;5031749;28;20044;-75
2021/11/26 11:51:46;;;;;;;0.95;0.68;;;15.30;99.90;;;;;;5030127;28;20048;-74
2021/11/26 11:54:51;;;;;;;2.15;0.75;;;17.10;99.90;;;;;;5030645;28;20495;-74
2021/11/26 11:58:11;;;;;;;0.80;0.70;;;16.30;99.90;;;;;;5030273;28;20053;-75
2021/11/26 12:01:16;;;;;;;0.80;0.77;;;18.10;99.90;;;;;;5029296;28;20040;-76
2021/11/26 12:04:21;;;;;;;1.30;0.80;;;17.20;99.90;;;;;;5032318;28;20040;-75
2021/11/26 12:07:30;;;;;;;2.70;0.60;;;17.70;99.90;;;;;;5029547;28;20048;-75
2021/11/26 12:10:50;;;;;;;2.05;0.60;;;18.90;99.90;;;;;;5027191;28;20052;-75
2021/11/26 12:14:01;;;;;;;0.85;0.50;;;20.00;99.90;;;;;;5031404;28;20048;-74
2021/11/26 12:17:12;;;;;;;2.03;1.40;;;19.00;99.90;;;;;;5031832;28;20064;-75
2021/11/26 12:20:23;;;;;;;1.05;0.80;;;18.90;99.90;;;;;;5027956;28;20037;-75
2021/11/26 12:23:33;;;;;;;0.60;0.57;;;18.00;99.90;;;;;;5029958;28;20045;-75
2021/11/26 12:26:52;;;;;;;1.45;0.90;;;20.50;99.90;;;;;;5029720;28;20558;-75
2021/11/26 12:30:01;;;;;;;1.35;0.70;;;21.00;99.90;;;;;;5028945;28;20041;-74
2021/11/26 12:33:27;;;;;;;1.42;0.80;;;22.10;99.90;;;;;;5031023;28;20040;-76
2021/11/26 12:36:46;;;;;;;1.67;1.27;;;19.10;99.90;;;;;;5023108;28;20672;-75
2021/11/26 12:39:52;;;;;;;1.02;0.80;;;19.60;99.90;;;;;;5029286;28;20040;-75
2021/11/26 12:43:03;;;;;;;1.70;1.05;;;21.70;99.90;;;;;;5029023;28;20048;-76
2021/11/26 12:46:22;;;;;;;1.20;0.73;;;23.00;98.90;;;;;;5030955;28;20063;-75
2021/11/26 12:49:35;;;;;;;2.42;1.60;;;22.10;97.80;;;;;;5030793;28;20040;-74
2021/11/26 12:52:39;;;;;;;3.72;2.20;;;21.20;99.40;;;;;;5028425;28;20052;-74
2021/11/26 12:55:54;;;;;;;3.72;1.98;;;19.80;99.90;;;;;;5028738;28;20049;-74
2021/11/26 12:58:58;;;;;;;1.83;1.05;;;18.60;99.90;;;;;;5029680;28;20404;-74
2021/11/26 13:02:05;;;;;;;3.08;1.88;;;17.60;99.90;;;;;;5030083;28;20041;-74
2021/11/26 13:05:16;;;;;;;2.45;1.50;;;17.50;99.90;;;;;;5028872;28;20052;-75
2021/11/26 13:08:21;;;;;;;2.60;1.35;;;16.80;99.90;;;;;;5032679;28;20044;-74
2021/11/26 13:11:27;;;;;;;1.80;1.00;;;16.50;99.90;;;;;;5028338;28;20384;-74
2021/11/26 13:14:54;;;;;;;1.95;1.20;;;17.80;99.90;;;;;;5025885;28;20040;-74
2021/11/26 13:18:02;;;;;;;1.58;0.90;;;18.50;99.90;;;;;;5030598;28;20064;-74
2021/11/26 13:21:07;;;;;;;1.40;0.93;;;17.60;99.90;;;;;;5031952;28;20068;-74
2021/11/26 13:24:11;;;;;;;2.15;0.90;;;15.40;99.90;;;;;;5029895;28;20044;-74
2021/11/26 13:27:16;;;;;;;1.05;0.85;;;14.90;99.90;;;;;;5028993;28;20511;-74
2021/11/26 13:30:26;;;;;;;2.75;1.10;;;13.90;99.90;;;;;;5030511;28;20045;-74
2021/11/26 13:33:38;;;;;;;1.63;1.13;;;13.50;99.90;;;;;;5028771;28;20036;-74
2021/11/26 13:36:42;;;;;;;4.22;1.50;;;13.50;99.90;;;;;;5029026;28;20053;-74
2021/11/26 13:40:00;;;;;;;4.28;1.48;;;13.50;99.90;;;;;;5040969;28;20044;-73
2021/11/26 13:43:04;;;;;;;3.50;1.75;;;13.60;99.90;;;;;;5029849;28;20045;-74
2021/11/26 13:46:10;;;;;;;1.95;1.10;;;13.50;99.90;;;;;;5029000;28;20566;-74
2021/11/26 13:49:25;;;;;;;5.22;2.70;;;14.30;99.90;;;;;;5028038;28;20095;-74
2021/11/26 13:52:29;;;;;;;3.92;1.63;;;15.40;99.90;;;;;;5027602;28;20051;-74
2021/11/26 13:55:35;;;;;;;7.47;2.95;;;15.60;99.90;;;;;;5029812;28;20055;-74
2021/11/26 13:58:52;;;;;;;2.88;1.15;;;15.40;99.90;;;;;;5028347;28;20510;-74
2021/11/26 14:02:17;;;;;;;5.65;2.33;;;14.90;99.90;;;;;;5026899;28;20040;-75
2021/11/26 14:05:28;;;;;;;9.57;3.90;;;14.80;99.90;;;;;;5030193;28;20737;-74
2021/11/26 14:08:48;;;;;;;4.68;1.38;;;15.10;99.90;;;;;;5028067;28;20486;-74
2021/11/26 14:11:53;;;;;;;4.72;1.77;;;15.50;99.90;;;;;;5027938;28;20056;-74
2021/11/26 14:24:47;;;;;;;2.70;1.45;;;14.90;99.90;;;;;;5033341;28;20065;-74
2021/11/26 14:27:54;;;;;;;4.35;1.50;;;14.10;99.90;;;;;;5028367;28;20782;-74
2021/11/26 14:31:08;;;;;;;3.75;1.92;;;13.90;99.90;;;;;;5029904;28;20428;-74
2021/11/26 14:34:16;;;;;;;2.88;1.75;;;13.70;99.90;;;;;;5022775;28;20043;-74
2021/11/26 14:37:26;;;;;;;3.15;1.85;;;13.40;99.90;;;;;;5029943;28;20503;-74
2021/11/26 14:40:33;;;;;;;4.78;1.70;;;12.90;99.90;;;;;;5025583;28;20400;-74
2021/11/26 14:43:38;;;;;;;2.97;1.50;;;12.70;99.90;;;;;;5025345;28;20404;-74
2021/11/26 14:46:53;;;;;;;1.55;1.20;;;12.50;99.90;;;;;;5038401;28;20044;-74
2021/11/26 14:49:57;;;;;;;2.53;1.70;;;12.30;99.90;;;;;;5028831;28;20052;-74
2021/11/26 14:53:12;;;;;;;2.92;1.90;;;12.20;99.90;;;;;;5030113;28;20053;-74
2021/11/26 14:56:18;;;;;;;4.65;1.80;;;12.20;99.90;;;;;;5023748;28;20384;-74
2021/11/26 14:59:22;;;;;;;2.80;2.10;;;12.20;99.90;;;;;;5029423;28;20041;-74
2021/11/26 15:02:26;;;;;;;3.95;1.70;;;12.20;99.90;;;;;;5023299;28;20049;-75
2021/11/26 15:05:30;;;;;;;2.95;1.98;;;12.10;99.90;;;;;;5028131;28;20668;-74
2021/11/26 15:08:34;;;;;;;2.47;1.80;;;12.10;99.90;;;;;;5025361;28;20056;-74
2021/11/26 15:11:42;;;;;;;3.20;2.08;;;12.00;99.90;;;;;;5026032;28;20040;-74
2021/11/26 15:14:46;;;;;;;13.80;2.22;;;11.90;99.90;;;;;;5027410;28;20048;-74
2021/11/26 15:17:51;;;;;;;6.53;1.52;;;11.80;99.90;;;;;;5028139;28;20395;-74
2021/11/26 15:20:55;;;;;;;9.98;5.35;;;11.80;99.90;;;;;;5028800;28;20514;-74
2021/11/26 15:24:01;;;;;;;7.75;4.50;;;11.70;99.90;;;;;;5028749;28;20384;-74
2021/11/26 15:27:05;;;;;;;3.70;2.05;;;11.70;99.90;;;;;;5029909;28;20384;-74
2021/11/26 15:30:09;;;;;;;5.00;2.47;;;11.60;99.90;;;;;;5027939;28;20117;-74
2021/11/26 15:33:13;;;;;;;6.80;2.50;;;11.50;99.90;;;;;;5029293;28;20048;-75
2021/11/26 15:36:18;;;;;;;5.88;4.10;;;11.40;99.90;;;;;;5027295;28;20395;-74
2021/11/26 15:39:22;;;;;;;6.32;2.30;;;11.40;99.90;;;;;;5029190;28;20048;-75
2021/11/26 15:42:26;;;;;;;4.55;2.30;;;11.30;99.90;;;;;;5023550;28;20040;-74
2021/11/26 15:45:31;;;;;;;3.47;2.35;;;11.30;99.90;;;;;;5033731;28;20035;-74
2021/11/26 15:48:35;;;;;;;4.85;2.50;;;11.30;99.90;;;;;;5032054;28;20052;-74
2021/11/26 15:51:40;;;;;;;5.53;2.90;;;11.20;99.90;;;;;;5031633;28;20783;-74
2021/11/26 15:54:44;;;;;;;7.78;4.03;;;11.20;99.90;;;;;;5033485;28;20044;-74
2021/11/26 15:57:48;;;;;;;6.68;4.78;;;11.10;99.90;;;;;;5032559;28;20041;-74
2021/11/26 16:00:52;;;;;;;7.55;4.80;;;11.10;99.90;;;;;;5030464;28;20037;-74
2021/11/26 16:03:56;;;;;;;12.00;6.28;;;11.10;99.90;;;;;;5031544;28;20408;-74
2021/11/26 16:07:00;;;;;;;5.13;2.40;;;11.10;99.90;;;;;;5031949;28;20362;-74
2021/11/26 16:10:06;;;;;;;9.85;2.88;;;11.00;99.90;;;;;;5031358;28;20046;-74
2021/11/26 16:13:11;;;;;;;4.93;2.83;;;10.80;99.90;;;;;;5026387;28;20040;-73
2021/11/26 16:30:31;;;;;;;6.72;3.30;;;10.50;99.90;;;;;;5030403;28;20044;-74